createdAt,value
2023-03-06T00:00:36.151Z,50.877213
2023-03-06T00:01:36.153Z,50.877201
2023-03-06T00:02:36.120Z,50.877228
2023-03-06T00:03:36.174Z,50.877205
2023-03-06T00:04:36.101Z,50.877201
2023-03-06T00:05:36.118Z,50.877144
2023-03-06T00:06:36.081Z,50.877155
2023-03-06T00:07:36.070Z,50.877110
2023-03-06T00:08:36.058Z,50.877090
2023-03-06T00:09:36.112Z,50.877197
2023-03-06T00:10:36.043Z,50.877201
2023-03-06T00:11:36.041Z,50.877155
2023-03-06T00:12:36.026Z,50.877209
2023-03-06T00:13:36.019Z,50.877220
2023-03-06T00:14:36.047Z,50.877209
2023-03-06T00:15:36.022Z,50.877316
2023-03-06T00:16:36.027Z,50.877174
2023-03-06T00:17:35.990Z,50.877155
2023-03-06T00:18:35.967Z,50.877205
2023-03-06T00:19:35.973Z,50.877213
2023-03-06T00:20:35.955Z,50.877121
2023-03-06T00:21:35.936Z,50.877132
2023-03-06T00:22:35.928Z,50.877228
2023-03-06T00:23:35.940Z,50.877209
2023-03-06T00:24:35.907Z,50.877171
2023-03-06T00:25:35.908Z,50.877155
2023-03-06T00:26:35.889Z,50.877193
2023-03-06T00:27:35.885Z,50.877201
2023-03-06T00:28:35.933Z,50.877186
2023-03-06T00:29:35.866Z,50.877216
2023-03-06T00:30:35.855Z,50.877159
2023-03-06T00:31:35.850Z,50.877186
2023-03-06T00:32:35.889Z,50.877205
2023-03-06T00:33:35.832Z,50.877159
2023-03-06T00:34:35.825Z,50.877251
2023-03-06T00:35:35.840Z,50.877140
2023-03-06T00:36:35.821Z,50.877186
2023-03-06T00:37:35.775Z,50.877125
2023-03-06T00:38:35.764Z,50.877163
2023-03-06T00:39:35.771Z,50.877216
2023-03-06T00:40:35.745Z,50.877182
2023-03-06T00:41:35.763Z,50.877228
2023-03-06T00:42:35.746Z,50.877186
2023-03-06T00:43:35.720Z,50.877167
2023-03-06T00:44:35.711Z,50.877232
2023-03-06T00:45:35.756Z,50.877174
2023-03-06T00:46:35.702Z,50.877209
2023-03-06T00:47:35.694Z,50.877220
2023-03-06T00:48:35.666Z,50.877289
2023-03-06T00:49:35.690Z,50.877472
2023-03-06T00:50:35.657Z,50.877426
2023-03-06T00:51:35.634Z,50.877228
2023-03-06T00:52:35.667Z,50.877209
2023-03-06T00:53:35.619Z,50.877186
2023-03-06T00:54:35.614Z,50.877186
2023-03-06T00:55:35.600Z,50.877190
2023-03-06T00:56:35.590Z,50.877190
2023-03-06T00:57:35.624Z,50.877171
2023-03-06T00:58:35.601Z,50.877186
2023-03-06T00:59:35.585Z,50.877201
2023-03-06T01:00:35.636Z,50.877190
2023-03-06T01:01:35.546Z,50.877186
2023-03-06T01:02:35.596Z,50.877193
2023-03-06T01:03:35.561Z,50.877216
2023-03-06T01:04:35.521Z,50.877216
2023-03-06T01:05:35.499Z,50.877209
2023-03-06T01:06:35.471Z,50.877201
2023-03-06T01:07:35.498Z,50.877201
2023-03-06T01:08:35.466Z,50.877205
2023-03-06T01:09:35.486Z,50.877201
2023-03-06T01:10:35.436Z,50.877201
2023-03-06T01:11:36.447Z,50.877193
2023-03-06T01:12:35.433Z,50.877193
2023-03-06T01:13:35.403Z,50.877205
2023-03-06T01:14:35.420Z,50.877224
2023-03-06T01:15:35.410Z,50.877190
2023-03-06T01:16:35.439Z,50.877182
2023-03-06T01:17:35.393Z,50.877197
2023-03-06T01:18:35.398Z,50.877216
2023-03-06T01:19:35.362Z,50.877193
2023-03-06T01:20:35.351Z,50.877197
2023-03-06T01:21:35.345Z,50.877205
2023-03-06T01:23:07.235Z,50.877205
2023-03-06T01:23:35.331Z,50.877213
2023-03-06T01:24:35.315Z,50.877205
2023-03-06T01:25:35.302Z,50.877201
2023-03-06T01:26:35.322Z,50.877201
2023-03-06T01:27:35.286Z,50.877216
2023-03-06T01:28:35.308Z,50.877209
2023-03-06T01:29:35.269Z,50.877205
2023-03-06T01:30:35.255Z,50.877213
2023-03-06T01:31:35.315Z,50.877213
2023-03-06T01:32:35.307Z,50.877197
2023-03-06T01:33:35.215Z,50.877193
2023-03-06T01:34:35.224Z,50.877197
2023-03-06T01:35:35.302Z,50.877205
2023-03-06T01:36:35.217Z,50.877201
2023-03-06T01:37:35.231Z,50.877213
2023-03-06T01:38:35.176Z,50.877239
2023-03-06T01:39:35.162Z,50.877213
2023-03-06T01:40:35.157Z,50.877205
2023-03-06T01:41:35.158Z,50.877216
2023-03-06T01:42:35.162Z,50.877209
2023-03-06T01:43:35.139Z,50.877201
2023-03-06T01:44:35.180Z,50.877235
2023-03-06T01:45:35.177Z,50.877228
2023-03-06T01:46:35.109Z,50.877213
2023-03-06T01:47:35.084Z,50.877228
2023-03-06T01:48:35.379Z,50.877235
2023-03-06T01:49:35.080Z,50.877235
2023-03-06T01:50:35.058Z,50.877228
2023-03-06T01:51:35.082Z,50.877232
2023-03-06T01:52:35.026Z,50.877239
2023-03-06T01:53:35.080Z,50.877213
2023-03-06T01:54:35.019Z,50.877228
2023-03-06T01:55:35.020Z,50.877224
2023-03-06T01:56:35.014Z,50.877220
2023-03-06T01:57:34.983Z,50.877205
2023-03-06T01:58:34.987Z,50.877193
2023-03-06T01:59:34.995Z,50.877205
2023-03-06T02:00:34.961Z,50.877193
2023-03-06T02:01:34.947Z,50.877171
2023-03-06T02:02:35.017Z,50.877197
2023-03-06T02:03:34.930Z,50.877224
2023-03-06T02:04:34.953Z,50.877216
2023-03-06T02:05:34.921Z,50.877205
2023-03-06T02:06:34.892Z,50.877224
2023-03-06T02:07:34.894Z,50.877205
2023-03-06T02:08:34.881Z,50.877209
2023-03-06T02:09:34.891Z,50.877201
2023-03-06T02:10:34.896Z,50.877220
2023-03-06T02:11:34.909Z,50.877216
2023-03-06T02:12:34.848Z,50.877232
2023-03-06T02:13:34.860Z,50.877220
2023-03-06T02:14:34.818Z,50.877216
2023-03-06T02:15:34.808Z,50.877216
2023-03-06T02:16:34.831Z,50.877190
2023-03-06T02:17:34.785Z,50.877213
2023-03-06T02:18:34.814Z,50.877201
2023-03-06T02:19:34.776Z,50.877213
2023-03-06T02:20:34.784Z,50.877224
2023-03-06T02:21:34.764Z,50.877213
2023-03-06T02:22:34.771Z,50.877224
2023-03-06T02:23:34.758Z,50.877197
2023-03-06T02:24:34.723Z,50.877159
2023-03-06T02:25:34.708Z,50.877178
2023-03-06T02:26:34.718Z,50.877262
2023-03-06T02:27:34.712Z,50.877205
2023-03-06T02:28:34.690Z,50.877232
2023-03-06T02:29:34.704Z,50.877232
2023-03-06T02:30:34.903Z,50.877201
2023-03-06T02:31:34.659Z,50.877197
2023-03-06T02:32:34.730Z,50.877197
2023-03-06T02:33:34.672Z,50.877235
2023-03-06T02:34:34.646Z,50.877239
2023-03-06T02:35:34.681Z,50.877270
2023-03-06T02:36:34.603Z,50.877327
2023-03-06T02:37:34.627Z,50.877293
2023-03-06T02:38:34.584Z,50.877300
2023-03-06T02:39:34.627Z,50.877274
2023-03-06T02:40:34.562Z,50.877232
2023-03-06T02:41:34.570Z,50.877304
2023-03-06T02:42:34.568Z,50.877464
2023-03-06T02:43:34.559Z,50.877254
2023-03-06T02:44:34.576Z,50.877151
2023-03-06T02:45:34.523Z,50.877071
2023-03-06T02:46:34.562Z,50.877064
2023-03-06T02:47:34.521Z,50.877155
2023-03-06T02:48:34.497Z,50.877262
2023-03-06T02:49:34.483Z,50.877251
2023-03-06T02:50:34.474Z,50.877190
2023-03-06T02:51:34.471Z,50.877220
2023-03-06T02:52:34.461Z,50.877243
2023-03-06T02:53:34.437Z,50.877293
2023-03-06T02:54:34.447Z,50.877323
2023-03-06T02:55:34.435Z,50.877190
2023-03-06T02:56:34.439Z,50.877129
2023-03-06T02:57:34.423Z,50.877155
2023-03-06T02:58:34.410Z,50.877182
2023-03-06T02:59:34.383Z,50.877174
2023-03-06T03:00:34.374Z,50.877209
2023-03-06T03:01:34.433Z,50.877251
2023-03-06T03:02:34.343Z,50.877239
2023-03-06T03:03:34.364Z,50.877197
2023-03-06T03:04:34.384Z,50.877201
2023-03-06T03:05:34.325Z,50.877163
2023-03-06T03:06:34.324Z,50.877113
2023-03-06T03:07:34.293Z,50.877159
2023-03-06T03:08:34.285Z,50.877159
2023-03-06T03:09:34.311Z,50.877205
2023-03-06T03:10:34.267Z,50.877201
2023-03-06T03:11:34.251Z,50.877266
2023-03-06T03:12:34.250Z,50.877193
2023-03-06T03:13:34.234Z,50.877174
2023-03-06T03:14:34.253Z,50.877098
2023-03-06T03:15:34.288Z,50.877125
2023-03-06T03:16:34.210Z,50.877125
2023-03-06T03:17:34.197Z,50.877125
2023-03-06T03:18:34.188Z,50.877125
2023-03-06T03:19:34.175Z,50.877125
2023-03-06T03:20:34.191Z,50.877125
2023-03-06T03:21:34.157Z,50.877125
2023-03-06T03:22:34.149Z,50.877125
2023-03-06T03:23:34.132Z,50.877125
2023-03-06T03:24:34.205Z,50.877125
2023-03-06T03:25:34.113Z,50.877125
2023-03-06T03:26:34.118Z,50.877125
2023-03-06T03:27:34.094Z,50.877125
2023-03-06T03:28:34.092Z,50.877125
2023-03-06T03:29:34.096Z,50.877125
2023-03-06T03:30:34.070Z,50.877125
2023-03-06T03:31:34.105Z,50.877125
2023-03-06T03:32:34.156Z,50.877125
2023-03-06T03:33:34.052Z,50.877213
2023-03-06T03:34:34.032Z,50.877201
2023-03-06T03:35:34.050Z,50.877228
2023-03-06T03:36:34.051Z,50.877384
2023-03-06T03:37:34.027Z,50.877274
2023-03-06T03:38:33.996Z,50.877239
2023-03-06T03:39:33.985Z,50.877216
2023-03-06T03:40:33.988Z,50.877262
2023-03-06T03:41:34.006Z,50.877144
2023-03-06T03:42:33.982Z,50.877102
2023-03-06T03:43:34.945Z,50.877083
2023-03-06T03:44:33.965Z,50.877083
2023-03-06T03:45:33.927Z,50.877232
2023-03-06T03:46:34.959Z,50.877045
2023-03-06T03:47:33.931Z,50.877117
2023-03-06T03:48:33.905Z,50.877159
2023-03-06T03:49:33.906Z,50.877110
2023-03-06T03:50:33.879Z,50.877129
2023-03-06T03:51:33.872Z,50.877171
2023-03-06T03:52:33.855Z,50.877098
2023-03-06T03:53:33.849Z,50.877201
2023-03-06T03:54:33.861Z,50.877167
2023-03-06T03:55:33.845Z,50.877205
2023-03-06T03:56:33.813Z,50.877190
2023-03-06T03:57:33.801Z,50.877125
2023-03-06T03:58:33.803Z,50.877144
2023-03-06T03:59:33.775Z,50.877182
2023-03-06T04:00:33.791Z,50.877197
2023-03-06T04:01:33.826Z,50.877220
2023-03-06T04:02:33.769Z,50.877224
2023-03-06T04:03:33.758Z,50.877239
2023-03-06T04:04:33.774Z,50.877235
2023-03-06T04:05:33.730Z,50.877228
2023-03-06T04:06:33.707Z,50.877190
2023-03-06T04:07:33.715Z,50.877148
2023-03-06T04:08:33.732Z,50.877174
2023-03-06T04:09:33.680Z,50.877163
2023-03-06T04:10:33.670Z,50.877209
2023-03-06T04:11:33.681Z,50.877148
2023-03-06T04:12:33.653Z,50.877178
2023-03-06T04:13:33.661Z,50.877148
2023-03-06T04:14:33.623Z,50.877186
2023-03-06T04:15:33.626Z,50.877167
2023-03-06T04:16:33.704Z,50.877190
2023-03-06T04:17:33.610Z,50.877209
2023-03-06T04:18:33.608Z,50.877239
2023-03-06T04:19:33.602Z,50.877239
2023-03-06T04:20:33.585Z,50.877243
2023-03-06T04:21:33.575Z,50.877239
2023-03-06T04:22:33.574Z,50.877213
2023-03-06T04:23:33.541Z,50.877266
2023-03-06T04:24:33.546Z,50.877228
2023-03-06T04:25:33.531Z,50.877224
2023-03-06T04:26:33.555Z,50.877266
2023-03-06T04:27:33.508Z,50.877247
2023-03-06T04:28:33.508Z,50.877216
2023-03-06T04:29:33.492Z,50.877201
2023-03-06T04:30:34.500Z,50.877190
2023-03-06T04:31:33.535Z,50.877220
2023-03-06T04:32:33.494Z,50.877232
2023-03-06T04:33:33.451Z,50.877216
2023-03-06T04:34:33.449Z,50.877201
2023-03-06T04:35:33.485Z,50.877224
2023-03-06T04:36:33.433Z,50.877247
2023-03-06T04:37:33.441Z,50.877228
2023-03-06T04:38:33.462Z,50.877213
2023-03-06T04:39:33.414Z,50.877213
2023-03-06T04:40:33.403Z,50.877228
2023-03-06T04:41:33.395Z,50.877224
2023-03-06T04:42:33.379Z,50.877232
2023-03-06T04:43:33.372Z,50.877243
2023-03-06T04:44:33.375Z,50.877209
2023-03-06T04:45:33.410Z,50.877254
2023-03-06T04:46:33.348Z,50.877224
2023-03-06T04:47:33.324Z,50.877232
2023-03-06T04:48:33.310Z,50.877224
2023-03-06T04:49:33.309Z,50.877258
2023-03-06T04:50:33.308Z,50.877274
2023-03-06T04:51:33.308Z,50.877262
2023-03-06T04:52:33.299Z,50.877239
2023-03-06T04:53:33.275Z,50.877239
2023-03-06T04:54:33.260Z,50.877258
2023-03-06T04:55:33.268Z,50.877216
2023-03-06T04:56:33.246Z,50.877232
2023-03-06T04:57:33.262Z,50.877190
2023-03-06T04:58:33.225Z,50.877193
2023-03-06T04:59:34.210Z,50.877205
2023-03-06T05:00:33.214Z,50.877220
2023-03-06T05:01:33.198Z,50.877216
2023-03-06T05:02:33.283Z,50.877216
2023-03-06T05:03:33.183Z,50.877239
2023-03-06T05:04:33.157Z,50.877209
2023-03-06T05:05:33.149Z,50.877228
2023-03-06T05:06:33.153Z,50.877224
2023-03-06T05:07:33.115Z,50.877228
2023-03-06T05:08:33.107Z,50.877178
2023-03-06T05:09:33.109Z,50.877193
2023-03-06T05:10:33.119Z,50.877201
2023-03-06T05:11:33.106Z,50.877274
2023-03-06T05:12:33.070Z,50.877304
2023-03-06T05:13:33.074Z,50.877193
2023-03-06T05:14:33.053Z,50.877209
2023-03-06T05:15:33.070Z,50.877247
2023-03-06T05:16:33.104Z,50.877266
2023-03-06T05:17:33.026Z,50.877247
2023-03-06T05:18:33.013Z,50.877190
2023-03-06T05:19:33.006Z,50.877239
2023-03-06T05:20:33.007Z,50.877251
2023-03-06T05:21:32.981Z,50.877239
2023-03-06T05:22:32.954Z,50.877232
2023-03-06T05:23:32.961Z,50.877251
2023-03-06T05:24:32.948Z,50.877235
2023-03-06T05:25:32.968Z,50.877243
2023-03-06T05:26:32.923Z,50.877262
2023-03-06T05:27:32.926Z,50.877277
2023-03-06T05:28:32.923Z,50.877216
2023-03-06T05:29:32.886Z,50.877224
2023-03-06T05:30:32.893Z,50.877232
2023-03-06T05:31:32.946Z,50.877254
2023-03-06T05:32:35.390Z,50.877247
2023-03-06T05:33:33.864Z,50.877197
2023-03-06T05:34:32.873Z,50.877228
2023-03-06T05:35:32.922Z,50.877220
2023-03-06T05:36:32.834Z,50.877224
2023-03-06T05:37:32.839Z,50.877224
2023-03-06T05:38:32.830Z,50.877228
2023-03-06T05:39:32.816Z,50.877243
2023-03-06T05:40:32.800Z,50.877235
2023-03-06T05:41:33.804Z,50.877243
2023-03-06T05:42:32.773Z,50.877209
2023-03-06T05:43:32.765Z,50.877213
2023-03-06T05:44:32.765Z,50.877235
2023-03-06T05:45:32.805Z,50.877190
2023-03-06T05:46:32.747Z,50.877216
2023-03-06T05:47:32.730Z,50.877205
2023-03-06T05:48:32.716Z,50.877235
2023-03-06T05:49:32.722Z,50.877239
2023-03-06T05:50:32.708Z,50.877205
2023-03-06T05:51:32.681Z,50.877213
2023-03-06T05:52:32.673Z,50.877190
2023-03-06T05:53:32.697Z,50.877232
2023-03-06T05:54:32.682Z,50.877209
2023-03-06T05:55:32.643Z,50.877213
2023-03-06T05:56:32.633Z,50.877197
2023-03-06T05:57:32.630Z,50.877178
2023-03-06T05:58:32.644Z,50.877277
2023-03-06T05:59:32.604Z,50.877254
2023-03-06T06:00:32.596Z,50.877281
2023-03-06T06:01:32.591Z,50.877258
2023-03-06T06:02:32.615Z,50.877228
2023-03-06T06:03:32.612Z,50.877193
2023-03-06T06:04:32.674Z,50.877224
2023-03-06T06:05:32.554Z,50.877182
2023-03-06T06:06:32.538Z,50.877178
2023-03-06T06:07:32.532Z,50.877171
2023-03-06T06:08:32.510Z,50.877216
2023-03-06T06:09:33.521Z,50.877193
2023-03-06T06:10:32.486Z,50.877258
2023-03-06T06:11:33.510Z,50.877251
2023-03-06T06:12:32.508Z,50.877235
2023-03-06T06:13:32.467Z,50.877209
2023-03-06T06:14:32.463Z,50.877209
2023-03-06T06:15:32.461Z,50.877201
2023-03-06T06:16:32.450Z,50.877228
2023-03-06T06:17:32.446Z,50.877197
2023-03-06T06:18:32.418Z,50.877216
2023-03-06T06:19:32.410Z,50.877239
2023-03-06T06:20:32.418Z,50.877213
2023-03-06T06:21:32.406Z,50.877224
2023-03-06T06:22:32.395Z,50.877232
2023-03-06T06:23:32.378Z,50.877197
2023-03-06T06:24:33.363Z,50.877190
2023-03-06T06:25:32.366Z,50.877224
2023-03-06T06:26:32.360Z,50.877213
2023-03-06T06:27:32.337Z,50.877213
2023-03-06T06:28:32.346Z,50.877205
2023-03-06T06:29:32.316Z,50.877213
2023-03-06T06:30:32.331Z,50.877216
2023-03-06T06:31:32.379Z,50.877190
2023-03-06T06:32:32.340Z,50.877216
2023-03-06T06:33:32.298Z,50.877216
2023-03-06T06:34:32.268Z,50.877220
2023-03-06T06:35:32.307Z,50.877209
2023-03-06T06:36:32.268Z,50.877201
2023-03-06T06:37:32.240Z,50.877182
2023-03-06T06:38:32.224Z,50.877190
2023-03-06T06:39:32.222Z,50.877186
2023-03-06T06:40:32.214Z,50.877193
2023-03-06T06:41:56.909Z,50.877197
2023-03-06T06:42:37.161Z,50.877186
2023-03-06T06:43:34.186Z,50.877174
2023-03-06T06:44:32.177Z,50.877201
2023-03-06T06:45:32.153Z,50.877190
2023-03-06T06:47:19.293Z,50.877197
2023-03-06T06:47:34.267Z,50.877213
2023-03-06T06:48:32.130Z,50.877209
2023-03-06T06:49:32.149Z,50.877213
2023-03-06T06:50:32.128Z,50.877205
2023-03-06T06:51:32.117Z,50.877220
2023-03-06T06:52:32.089Z,50.877228
2023-03-06T06:53:32.087Z,50.877220
2023-03-06T06:54:32.092Z,50.877224
2023-03-06T06:55:32.062Z,50.877197
2023-03-06T06:56:32.058Z,50.877193
2023-03-06T06:57:32.072Z,50.877167
2023-03-06T06:58:32.031Z,50.877197
2023-03-06T06:59:32.021Z,50.877247
2023-03-06T07:00:33.092Z,50.877262
2023-03-06T07:01:32.008Z,50.877247
2023-03-06T07:02:32.006Z,50.877209
2023-03-06T07:03:32.005Z,50.877213
2023-03-06T07:04:31.992Z,50.877224
2023-03-06T07:05:31.996Z,50.877193
2023-03-06T07:06:31.955Z,50.877201
2023-03-06T07:07:31.961Z,50.877216
2023-03-06T07:08:31.946Z,50.877228
2023-03-06T07:09:31.942Z,50.877239
2023-03-06T07:10:31.949Z,50.877197
2023-03-06T07:11:31.901Z,50.877213
2023-03-06T07:12:31.906Z,50.877220
2023-03-06T07:13:31.898Z,50.877243
2023-03-06T07:14:31.904Z,50.877205
2023-03-06T07:15:31.879Z,50.877228
2023-03-06T07:16:31.855Z,50.877213
2023-03-06T07:17:31.877Z,50.877220
2023-03-06T07:18:31.847Z,50.877205
2023-03-06T07:19:31.820Z,50.877213
2023-03-06T07:20:31.814Z,50.877220
2023-03-06T07:21:31.806Z,50.877213
2023-03-06T07:22:41.445Z,50.877205
2023-03-06T07:23:33.781Z,50.877216
2023-03-06T07:25:04.893Z,50.877201
2023-03-06T07:25:31.767Z,50.877228
2023-03-06T07:26:34.521Z,50.877220
2023-03-06T07:27:32.783Z,50.877190
2023-03-06T07:28:42.990Z,50.877228
2023-03-06T07:29:33.778Z,50.877239
2023-03-06T07:30:31.753Z,50.877232
2023-03-06T07:31:31.754Z,50.877216
2023-03-06T07:32:31.776Z,50.877209
2023-03-06T07:33:31.694Z,50.877235
2023-03-06T07:34:31.710Z,50.877224
2023-03-06T07:35:31.686Z,50.877213
2023-03-06T07:36:31.678Z,50.877232
2023-03-06T07:37:31.679Z,50.877224
2023-03-06T07:38:31.648Z,50.877228
2023-03-06T07:39:31.655Z,50.877213
2023-03-06T07:40:31.642Z,50.877213
2023-03-06T07:41:31.668Z,50.877213
2023-03-06T07:42:31.608Z,50.877197
2023-03-06T07:43:31.602Z,50.877193
2023-03-06T07:44:31.634Z,50.877186
2023-03-06T07:45:31.615Z,50.877190
2023-03-06T07:46:31.640Z,50.877197
2023-03-06T07:47:31.600Z,50.877209
2023-03-06T07:48:31.572Z,50.877186
2023-03-06T07:49:31.551Z,50.877205
2023-03-06T07:50:31.542Z,50.877205
2023-03-06T07:51:31.553Z,50.877190
2023-03-06T07:52:31.533Z,50.877216
2023-03-06T07:53:31.524Z,50.877220
2023-03-06T07:54:31.487Z,50.877213
2023-03-06T07:55:31.506Z,50.877232
2023-03-06T07:56:31.503Z,50.877235
2023-03-06T07:57:31.469Z,50.877224
2023-03-06T07:58:31.533Z,50.877239
2023-03-06T07:59:31.470Z,50.877235
2023-03-06T08:00:31.454Z,50.877239
2023-03-06T08:01:31.447Z,50.877209
2023-03-06T08:02:31.441Z,50.877235
2023-03-06T08:03:31.462Z,50.877251
2023-03-06T08:04:31.406Z,50.877228
2023-03-06T08:05:31.402Z,50.877228
2023-03-06T08:06:31.389Z,50.877232
2023-03-06T08:07:31.405Z,50.877239
2023-03-06T08:08:31.355Z,50.877216
2023-03-06T08:09:31.382Z,50.877213
2023-03-06T08:10:31.352Z,50.877178
2023-03-06T08:11:31.359Z,50.877205
2023-03-06T08:12:31.311Z,50.877213
2023-03-06T08:13:31.323Z,50.877228
2023-03-06T08:14:31.299Z,50.877232
2023-03-06T08:15:31.355Z,50.877224
2023-03-06T08:16:31.314Z,50.877239
2023-03-06T08:17:31.262Z,50.877224
2023-03-06T08:18:31.278Z,50.877213
2023-03-06T08:19:31.268Z,50.877213
2023-03-06T08:20:31.239Z,50.877186
2023-03-06T08:21:31.246Z,50.877193
2023-03-06T08:22:31.220Z,50.877213
2023-03-06T08:23:31.223Z,50.877209
2023-03-06T08:24:31.237Z,50.877213
2023-03-06T08:25:31.196Z,50.877228
2023-03-06T08:26:31.198Z,50.877209
2023-03-06T08:27:31.170Z,50.877239
2023-03-06T08:28:31.195Z,50.877228
2023-03-06T08:29:32.338Z,50.877186
2023-03-06T08:30:31.145Z,50.877205
2023-03-06T08:31:31.172Z,50.877220
2023-03-06T08:32:32.203Z,50.877251
2023-03-06T08:33:31.122Z,50.877235
2023-03-06T08:34:31.106Z,50.877239
2023-03-06T08:35:31.144Z,50.877235
2023-03-06T08:36:31.116Z,50.877213
2023-03-06T08:37:31.137Z,50.877205
2023-03-06T08:38:31.067Z,50.877205
2023-03-06T08:39:31.075Z,50.877201
2023-03-06T08:40:31.086Z,50.877201
2023-03-06T08:41:31.043Z,50.877228
2023-03-06T08:42:31.049Z,50.877235
2023-03-06T08:43:31.026Z,50.877209
2023-03-06T08:44:31.059Z,50.877205
2023-03-06T08:45:31.090Z,50.877209
2023-03-06T08:46:31.005Z,50.877213
2023-03-06T08:47:30.995Z,50.877239
2023-03-06T08:48:31.060Z,50.877232
2023-03-06T08:49:30.990Z,50.877201
2023-03-06T08:50:30.961Z,50.877205
2023-03-06T08:51:30.987Z,50.877205
2023-03-06T08:52:30.940Z,50.877220
2023-03-06T08:53:42.560Z,50.877213
2023-03-06T08:54:32.936Z,50.877190
2023-03-06T08:55:30.913Z,50.877174
2023-03-06T08:56:30.918Z,50.877171
2023-03-06T08:57:30.898Z,50.877201
2023-03-06T08:58:30.892Z,50.877209
2023-03-06T08:59:30.875Z,50.877209
2023-03-06T09:00:30.895Z,50.877216
2023-03-06T09:01:30.915Z,50.877201
2023-03-06T09:02:30.849Z,50.877213
2023-03-06T09:03:30.842Z,50.877182
2023-03-06T09:04:30.909Z,50.877205
2023-03-06T09:05:30.826Z,50.877174
2023-03-06T09:06:30.844Z,50.877171
2023-03-06T09:07:30.800Z,50.877171
2023-03-06T09:08:30.786Z,50.877186
2023-03-06T09:09:30.779Z,50.877117
2023-03-06T09:10:30.800Z,50.877140
2023-03-06T09:11:30.784Z,50.877163
2023-03-06T09:12:34.703Z,50.877190
2023-03-06T09:13:32.720Z,50.877190
2023-03-06T09:14:30.716Z,50.877174
2023-03-06T09:15:30.744Z,50.877182
2023-03-06T09:16:30.732Z,50.877201
2023-03-06T09:17:30.780Z,50.877197
2023-03-06T09:18:30.678Z,50.877193
2023-03-06T09:19:30.691Z,50.877193
2023-03-06T09:20:30.661Z,50.877228
2023-03-06T09:21:30.665Z,50.877197
2023-03-06T09:22:31.662Z,50.877205
2023-03-06T09:23:30.632Z,50.877190
2023-03-06T09:24:30.650Z,50.877193
2023-03-06T09:25:30.633Z,50.877201
2023-03-06T09:26:45.156Z,50.877186
2023-03-06T09:27:31.618Z,50.877209
2023-03-06T09:28:30.602Z,50.877197
2023-03-06T09:29:30.599Z,50.877178
2023-03-06T09:30:30.597Z,50.877190
2023-03-06T09:31:30.572Z,50.877186
2023-03-06T09:32:30.575Z,50.877201
2023-03-06T09:33:30.567Z,50.877174
2023-03-06T09:34:30.530Z,50.877121
2023-03-06T09:35:30.620Z,50.877151
2023-03-06T09:36:30.525Z,50.877159
2023-03-06T09:37:30.536Z,50.877163
2023-03-06T09:38:30.526Z,50.877163
2023-03-06T09:39:30.493Z,50.877174
2023-03-06T09:40:30.488Z,50.877163
2023-03-06T09:41:30.482Z,50.877163
2023-03-06T09:42:30.478Z,50.877178
2023-03-06T09:43:30.454Z,50.877171
2023-03-06T09:44:30.442Z,50.877193
2023-03-06T09:45:30.432Z,50.877209
2023-03-06T09:46:30.510Z,50.877213
2023-03-06T09:47:30.434Z,50.877213
2023-03-06T09:48:30.404Z,50.877155
2023-03-06T09:49:30.373Z,50.877148
2023-03-06T09:50:30.367Z,50.877151
2023-03-06T09:51:30.379Z,50.877144
2023-03-06T09:52:30.357Z,50.877140
2023-03-06T09:53:31.363Z,50.877213
2023-03-06T09:54:30.347Z,50.877163
2023-03-06T09:55:30.313Z,50.877144
2023-03-06T09:56:30.301Z,50.877117
2023-03-06T09:57:30.297Z,50.877125
2023-03-06T09:58:30.292Z,50.877121
2023-03-06T09:59:30.297Z,50.877125
2023-03-06T10:00:30.286Z,50.877151
2023-03-06T10:01:30.252Z,50.877136
2023-03-06T10:02:30.357Z,50.877148
2023-03-06T10:03:30.293Z,50.877098
2023-03-06T10:04:30.238Z,50.877125
2023-03-06T10:05:30.211Z,50.877186
2023-03-06T10:06:30.260Z,50.877197
2023-03-06T10:07:30.189Z,50.877197
2023-03-06T10:08:30.194Z,50.877205
2023-03-06T10:09:30.190Z,50.877213
2023-03-06T10:10:30.189Z,50.877216
2023-03-06T10:11:30.153Z,50.877216
2023-03-06T10:12:30.229Z,50.877232
2023-03-06T10:13:30.146Z,50.877232
2023-03-06T10:14:30.122Z,50.877205
2023-03-06T10:15:30.212Z,50.877209
2023-03-06T10:16:30.103Z,50.877228
2023-03-06T10:17:30.098Z,50.877220
2023-03-06T10:18:30.079Z,50.877220
2023-03-06T10:19:30.079Z,50.877224
2023-03-06T10:20:30.058Z,50.877197
2023-03-06T10:21:30.080Z,50.877205
2023-03-06T10:22:30.076Z,50.877197
2023-03-06T10:23:30.035Z,50.877201
2023-03-06T10:24:30.037Z,50.877197
2023-03-06T10:25:30.016Z,50.877193
2023-03-06T10:26:30.162Z,50.877197
2023-03-06T10:27:29.999Z,50.877205
2023-03-06T10:28:29.985Z,50.877205
2023-03-06T10:29:29.989Z,50.877220
2023-03-06T10:30:29.984Z,50.877193
2023-03-06T10:31:30.006Z,50.877205
2023-03-06T10:32:39.546Z,50.877205
2023-03-06T10:33:31.962Z,50.877174
2023-03-06T10:34:29.973Z,50.877167
2023-03-06T10:35:30.751Z,50.877151
2023-03-06T10:36:30.937Z,50.877182
2023-03-06T10:37:31.638Z,50.877186
2023-03-06T10:38:29.903Z,50.877193
2023-03-06T10:39:29.892Z,50.877174
2023-03-06T10:40:29.876Z,50.877167
2023-03-06T10:41:29.882Z,50.877193
2023-03-06T10:42:29.844Z,50.877216
2023-03-06T10:43:30.872Z,50.877224
2023-03-06T10:44:29.845Z,50.877186
2023-03-06T10:45:35.323Z,50.877186
2023-03-06T10:46:30.840Z,50.877186
2023-03-06T10:47:29.811Z,50.877163
2023-03-06T10:48:29.803Z,50.877193
2023-03-06T10:49:29.908Z,50.877190
2023-03-06T10:50:29.773Z,50.877167
2023-03-06T10:51:29.775Z,50.877174
2023-03-06T10:52:29.769Z,50.877174
2023-03-06T10:53:29.757Z,50.877197
2023-03-06T10:54:29.767Z,50.877193
2023-03-06T10:55:29.753Z,50.877193
2023-03-06T10:56:29.734Z,50.877151
2023-03-06T10:57:29.763Z,50.877174
2023-03-06T10:58:29.707Z,50.877224
2023-03-06T10:59:29.719Z,50.877197
2023-03-06T11:00:29.684Z,50.877171
2023-03-06T11:01:29.686Z,50.877144
2023-03-06T11:02:29.681Z,50.877132
2023-03-06T11:03:29.655Z,50.877140
2023-03-06T11:04:29.715Z,50.877163
2023-03-06T11:05:29.644Z,50.877190
2023-03-06T11:06:29.648Z,50.877239
2023-03-06T11:07:29.634Z,50.877228
2023-03-06T11:08:30.410Z,50.877243
2023-03-06T11:09:29.583Z,50.877216
2023-03-06T11:10:29.579Z,50.877228
2023-03-06T11:11:37.419Z,50.877163
2023-03-06T11:12:31.560Z,50.877186
2023-03-06T11:13:29.560Z,50.877235
2023-03-06T11:14:29.563Z,50.877209
2023-03-06T11:15:29.533Z,50.877190
2023-03-06T11:16:29.583Z,50.877190
2023-03-06T11:17:29.508Z,50.877254
2023-03-06T11:18:29.500Z,50.877266
2023-03-06T11:19:29.490Z,50.877258
2023-03-06T11:20:41.295Z,50.877247
2023-03-06T11:21:31.834Z,50.877205
2023-03-06T11:22:30.464Z,50.877209
2023-03-06T11:23:29.443Z,50.877182
2023-03-06T11:24:29.457Z,50.877216